createdAt,value
2017-10-01T00:01:37.057Z,101641.19
2017-10-01T00:03:39.513Z,101641.11
2017-10-01T00:05:41.959Z,101645.49
2017-10-01T00:07:44.407Z,101651.13
2017-10-01T00:09:46.855Z,101643.20
2017-10-01T00:11:49.287Z,101644.82
2017-10-01T00:13:51.729Z,101647.00
2017-10-01T00:15:54.190Z,101647.68
2017-10-01T00:17:56.642Z,101643.47
2017-10-01T00:19:59.076Z,101639.77
2017-10-01T00:22:01.524Z,101646.91
2017-10-01T00:24:03.956Z,101648.61
2017-10-01T00:26:06.435Z,101653.06
2017-10-01T00:28:08.989Z,101645.39
2017-10-01T00:30:11.447Z,101650.47
2017-10-01T00:32:13.992Z,101649.19
2017-10-01T00:34:16.467Z,101657.36
2017-10-01T00:36:18.909Z,101649.19
2017-10-01T00:38:21.349Z,101655.44
2017-10-01T00:40:24.327Z,101652.98
2017-10-01T00:42:26.796Z,101654.33
2017-10-01T00:44:29.265Z,101651.20
2017-10-01T00:46:31.737Z,101651.29
2017-10-01T00:48:34.187Z,101654.09
2017-10-01T00:50:36.625Z,101647.09
2017-10-01T00:52:39.095Z,101644.39
2017-10-01T00:54:41.528Z,101648.70
2017-10-01T00:56:43.957Z,101658.72
2017-10-01T00:58:46.457Z,101662.17
2017-10-01T01:00:48.912Z,101661.76
2017-10-01T01:02:51.438Z,101661.92
2017-10-01T01:04:53.901Z,101659.99
2017-10-01T01:06:56.340Z,101662.42
2017-10-01T01:08:58.805Z,101658.38
2017-10-01T01:11:01.260Z,101664.19
2017-10-01T01:13:03.699Z,101666.49
2017-10-01T01:15:06.352Z,101663.44
2017-10-01T01:17:08.986Z,101668.66
2017-10-01T01:19:11.411Z,101672.31
2017-10-01T01:21:13.847Z,101674.73
2017-10-01T01:23:16.300Z,101675.00
2017-10-01T01:25:18.767Z,101674.93
2017-10-01T01:27:21.209Z,101678.80
2017-10-01T01:29:23.676Z,101678.78
2017-10-01T01:31:26.103Z,101679.13
2017-10-01T01:33:28.686Z,101678.63
2017-10-01T01:35:31.168Z,101675.00
2017-10-01T01:37:33.614Z,101675.25
2017-10-01T01:39:36.055Z,101685.19
2017-10-01T01:41:38.616Z,101677.34
2017-10-01T01:43:41.057Z,101679.11
2017-10-01T01:45:43.493Z,101678.38
2017-10-01T01:47:45.952Z,101684.27
2017-10-01T01:49:48.400Z,101677.20
2017-10-01T01:51:50.878Z,101687.79
2017-10-01T01:53:53.362Z,101686.88
2017-10-01T01:55:55.805Z,101686.72
2017-10-01T01:57:58.255Z,101691.44
2017-10-01T02:00:00.762Z,101686.35
2017-10-01T02:02:03.244Z,101680.87
2017-10-01T02:04:05.704Z,101684.77
2017-10-01T02:06:08.168Z,101689.33
2017-10-01T02:08:10.748Z,101697.17
2017-10-01T02:10:13.192Z,101699.85
2017-10-01T02:12:15.660Z,101697.17
2017-10-01T02:14:18.092Z,101701.05
2017-10-01T02:16:20.529Z,101697.08
2017-10-01T02:18:22.982Z,101695.74
2017-10-01T02:20:25.431Z,101697.85
2017-10-01T02:22:27.868Z,101698.78
2017-10-01T02:24:30.396Z,101698.92
2017-10-01T02:26:32.828Z,101698.02
2017-10-01T02:28:35.354Z,101689.81
2017-10-01T02:30:37.816Z,101695.55
2017-10-01T02:32:40.276Z,101693.11
2017-10-01T02:34:42.725Z,101689.14
2017-10-01T02:36:45.189Z,101686.02
2017-10-01T02:38:47.626Z,101680.79
2017-10-01T02:40:50.180Z,101689.56
2017-10-01T02:42:52.848Z,101681.39
2017-10-01T02:44:55.296Z,101682.83
2017-10-01T02:46:57.736Z,101683.16
2017-10-01T02:49:00.206Z,101679.30
2017-10-01T02:51:02.649Z,101673.55
2017-10-01T02:53:05.096Z,101683.23
2017-10-01T02:55:07.555Z,101678.28
2017-10-01T02:57:10.000Z,101678.36
2017-10-01T02:59:12.512Z,101674.63
2017-10-01T03:01:15.068Z,101676.23
2017-10-01T03:03:17.533Z,101675.66
2017-10-01T03:05:19.971Z,101673.58
2017-10-01T03:07:22.539Z,101672.11
2017-10-01T03:09:24.980Z,101671.52
2017-10-01T03:11:27.418Z,101668.92
2017-10-01T03:13:29.875Z,101673.71
2017-10-01T03:15:32.324Z,101672.70
2017-10-01T03:17:34.756Z,101677.58
2017-10-01T03:19:37.240Z,101673.20
2017-10-01T03:21:39.681Z,101672.28
2017-10-01T03:23:42.137Z,101679.20
2017-10-01T03:25:44.616Z,101678.08
2017-10-01T03:27:47.077Z,101680.13
2017-10-01T03:29:49.521Z,101669.53
2017-10-01T03:31:51.996Z,101682.91
2017-10-01T03:33:54.493Z,101676.84
2017-10-01T03:35:56.960Z,101678.02
2017-10-01T03:37:59.437Z,101680.87
2017-10-01T03:40:01.879Z,101675.33
2017-10-01T03:42:04.366Z,101677.78
2017-10-01T03:44:06.935Z,101685.44
2017-10-01T03:46:09.375Z,101684.67
2017-10-01T03:48:11.805Z,101688.14
2017-10-01T03:50:14.257Z,101689.98
2017-10-01T03:52:16.700Z,101692.48
2017-10-01T03:54:19.140Z,101695.59
2017-10-01T03:56:21.599Z,101700.83
2017-10-01T03:58:24.052Z,101702.41
2017-10-01T04:00:26.497Z,101712.89
2017-10-01T04:02:28.974Z,101708.60
2017-10-01T04:04:31.404Z,101707.84
2017-10-01T04:06:33.912Z,101710.09
2017-10-01T04:08:37.023Z,101711.30
2017-10-01T04:10:39.469Z,101709.51
2017-10-01T04:12:41.905Z,101719.02
2017-10-01T04:14:44.370Z,101716.02
2017-10-01T04:16:46.807Z,101723.16
2017-10-01T04:18:49.344Z,101722.14
2017-10-01T04:20:51.824Z,101722.75
2017-10-01T04:22:54.351Z,101721.71
2017-10-01T04:24:56.788Z,101726.45
2017-10-01T04:26:59.332Z,101721.56
2017-10-01T04:29:01.802Z,101727.98
2017-10-01T04:31:04.260Z,101733.16
2017-10-01T04:33:06.714Z,101736.08
2017-10-01T04:35:09.147Z,101735.15
2017-10-01T04:37:11.584Z,101737.60
2017-10-01T04:39:14.040Z,101728.50
2017-10-01T04:41:16.518Z,101732.58
2017-10-01T04:43:18.948Z,101730.23
2017-10-01T04:45:21.543Z,101735.44
2017-10-01T04:47:24.030Z,101727.58
2017-10-01T04:49:26.496Z,101726.15
2017-10-01T04:51:28.967Z,101723.78
2017-10-01T04:53:31.415Z,101731.12
2017-10-01T04:55:33.868Z,101728.52
2017-10-01T04:57:36.328Z,101733.66
2017-10-01T04:59:38.865Z,101730.58
2017-10-01T05:01:41.308Z,101730.17
2017-10-01T05:03:43.761Z,101732.36
2017-10-01T05:05:46.275Z,101723.98
2017-10-01T05:07:48.708Z,101728.46
2017-10-01T05:09:51.168Z,101719.35
2017-10-01T05:11:53.600Z,101722.75
2017-10-01T05:13:56.040Z,101715.16
2017-10-01T05:15:58.529Z,101708.66
2017-10-01T05:18:00.988Z,101709.69
2017-10-01T05:20:03.436Z,101703.69
2017-10-01T05:22:05.895Z,101705.31
2017-10-01T05:24:08.355Z,101704.89
2017-10-01T05:26:10.784Z,101709.27
2017-10-01T05:28:13.336Z,101715.98
2017-10-01T05:30:15.767Z,101715.80
2017-10-01T05:32:18.208Z,101717.84
2017-10-01T05:34:20.744Z,101706.18
2017-10-01T05:36:23.182Z,101708.56
2017-10-01T05:38:25.623Z,101709.91
2017-10-01T05:40:28.079Z,101707.47
2017-10-01T05:42:30.513Z,101713.05
2017-10-01T05:44:32.987Z,101711.00
2017-10-01T05:46:35.447Z,101714.97
2017-10-01T05:48:37.882Z,101718.09
2017-10-01T05:50:40.312Z,101723.48
2017-10-01T05:52:42.877Z,101726.84
2017-10-01T05:54:45.318Z,101736.67
2017-10-01T05:56:47.752Z,101737.64
2017-10-01T05:58:50.301Z,101738.59
2017-10-01T06:00:52.746Z,101747.38
2017-10-01T06:02:55.187Z,101746.30
2017-10-01T06:04:57.649Z,101749.53
2017-10-01T06:07:00.166Z,101744.39
2017-10-01T06:09:02.612Z,101741.72
2017-10-01T06:11:05.064Z,101746.17
2017-10-01T06:13:07.568Z,101752.83
2017-10-01T06:15:10.008Z,101750.20
2017-10-01T06:17:12.464Z,101746.80
2017-10-01T06:19:14.901Z,101745.18
2017-10-01T06:21:17.349Z,101749.79
2017-10-01T06:23:19.808Z,101740.04
2017-10-01T06:25:22.252Z,101740.54
2017-10-01T06:27:24.683Z,101746.84
2017-10-01T06:29:27.149Z,101747.08
2017-10-01T06:31:29.589Z,101748.53
2017-10-01T06:33:32.051Z,101744.31
2017-10-01T06:35:34.504Z,101751.22
2017-10-01T06:37:36.945Z,101742.59
2017-10-01T06:39:39.385Z,101746.33
2017-10-01T06:41:41.856Z,101747.42
2017-10-01T06:43:44.285Z,101748.03
2017-10-01T06:45:46.805Z,101748.69
2017-10-01T06:47:49.398Z,101738.08
2017-10-01T06:49:51.928Z,101743.00
2017-10-01T06:51:54.358Z,101754.69
2017-10-01T06:53:56.829Z,101751.25
2017-10-01T06:55:59.288Z,101746.48
2017-10-01T06:58:01.820Z,101741.48
2017-10-01T07:00:04.274Z,101741.78
2017-10-01T07:02:06.778Z,101744.98
2017-10-01T07:04:09.325Z,101736.18
2017-10-01T07:06:11.781Z,101739.45
2017-10-01T07:08:14.226Z,101738.60
2017-10-01T07:10:16.735Z,101741.23
2017-10-01T07:12:19.196Z,101741.48
2017-10-01T07:14:21.644Z,101741.15
2017-10-01T07:16:24.151Z,101745.95
2017-10-01T07:18:26.628Z,101746.95
2017-10-01T07:20:29.099Z,101745.86
2017-10-01T07:22:31.552Z,101755.41
2017-10-01T07:24:34.025Z,101749.42
2017-10-01T07:26:36.495Z,101759.23
2017-10-01T07:28:38.934Z,101757.77
2017-10-01T07:30:41.406Z,101753.86
2017-10-01T07:32:43.865Z,101747.22
2017-10-01T07:34:46.378Z,101752.70
2017-10-01T07:36:48.847Z,101748.12
2017-10-01T07:38:51.300Z,101747.50
2017-10-01T07:40:54.059Z,101736.95
2017-10-01T07:42:56.521Z,101743.31
2017-10-01T07:44:58.973Z,101740.59
2017-10-01T07:47:01.432Z,101742.77
2017-10-01T07:49:03.962Z,101742.86
2017-10-01T07:51:06.393Z,101750.86
2017-10-01T07:53:08.927Z,101751.07
2017-10-01T07:55:11.397Z,101754.64
2017-10-01T07:57:13.869Z,101755.37
2017-10-01T07:59:16.295Z,101748.27
2017-10-01T08:01:18.753Z,101752.66
2017-10-01T08:03:21.285Z,101736.14
2017-10-01T08:05:23.718Z,101737.44
2017-10-01T08:07:26.199Z,101729.98
2017-10-01T08:09:28.640Z,101734.07
2017-10-01T08:11:31.164Z,101730.83
2017-10-01T08:13:33.738Z,101724.51
2017-10-01T08:15:36.201Z,101731.42
2017-10-01T08:17:38.637Z,101731.69
2017-10-01T08:19:42.070Z,101731.03
2017-10-01T08:21:44.529Z,101747.88
2017-10-01T08:23:46.996Z,101749.84
2017-10-01T08:25:49.457Z,101745.37
2017-10-01T08:27:51.910Z,101750.09
2017-10-01T08:29:54.414Z,101746.27
2017-10-01T08:31:56.875Z,101743.23
2017-10-01T08:33:59.307Z,101747.61
2017-10-01T08:36:01.745Z,101739.78
2017-10-01T08:38:04.297Z,101734.79
2017-10-01T08:40:06.754Z,101735.81
2017-10-01T08:42:09.232Z,101736.68
2017-10-01T08:44:11.702Z,101734.81
2017-10-01T08:46:14.159Z,101730.88
2017-10-01T08:48:16.599Z,101735.67
2017-10-01T08:50:19.198Z,101728.50
2017-10-01T08:52:21.638Z,101733.91
2017-10-01T08:54:24.078Z,101739.79
2017-10-01T08:56:26.528Z,101740.73
2017-10-01T08:58:28.984Z,101739.00
2017-10-01T09:00:31.428Z,101729.45
2017-10-01T09:02:33.892Z,101735.53
2017-10-01T09:04:36.334Z,101739.50
2017-10-01T09:06:38.780Z,101741.44
2017-10-01T09:08:41.257Z,101736.38
2017-10-01T09:10:43.693Z,101732.91
2017-10-01T09:12:46.130Z,101733.02
2017-10-01T09:14:48.648Z,101722.30
2017-10-01T09:16:51.112Z,101726.84
2017-10-01T09:18:53.548Z,101720.87
2017-10-01T09:20:56.023Z,101720.80
2017-10-01T09:22:58.459Z,101722.73
2017-10-01T09:25:00.895Z,101714.53
2017-10-01T09:27:03.372Z,101714.98
2017-10-01T09:29:05.820Z,101718.95
2017-10-01T09:31:08.310Z,101719.09
2017-10-01T09:33:10.780Z,101718.76
2017-10-01T09:35:13.220Z,101721.37
2017-10-01T09:37:15.721Z,101717.00
2017-10-01T09:39:18.303Z,101713.28
2017-10-01T09:41:20.741Z,101720.38
2017-10-01T09:43:23.191Z,101716.56
2017-10-01T09:45:25.649Z,101716.48
2017-10-01T09:47:28.089Z,101712.63
2017-10-01T09:49:30.544Z,101716.83
2017-10-01T09:51:33.104Z,101724.34
2017-10-01T09:53:35.541Z,101726.79
2017-10-01T09:55:37.977Z,101723.49
2017-10-01T09:57:40.451Z,101721.81
2017-10-01T09:59:42.960Z,101715.66
2017-10-01T10:01:45.403Z,101715.74
2017-10-01T10:03:47.902Z,101715.49
2017-10-01T10:05:50.399Z,101712.69
2017-10-01T10:07:52.879Z,101699.72
2017-10-01T10:09:55.363Z,101697.19
2017-10-01T10:11:57.795Z,101704.24
2017-10-01T10:14:00.257Z,101698.86
2017-10-01T10:16:02.731Z,101702.91
2017-10-01T10:18:05.177Z,101709.91
2017-10-01T10:20:07.617Z,101712.88
2017-10-01T10:22:10.165Z,101705.28
2017-10-01T10:24:12.597Z,101704.77
2017-10-01T10:26:15.104Z,101708.34
2017-10-01T10:28:17.596Z,101710.10
2017-10-01T10:30:20.046Z,101709.40
2017-10-01T10:32:22.481Z,101709.25
2017-10-01T10:34:25.055Z,101711.27
2017-10-01T10:36:27.563Z,101705.20
2017-10-01T10:38:30.013Z,101698.88
2017-10-01T10:40:32.474Z,101692.36
2017-10-01T10:42:35.208Z,101692.30
2017-10-01T10:46:46.435Z,101694.33
2017-10-01T10:48:48.879Z,101693.64
2017-10-01T10:50:51.310Z,101694.16
2017-10-01T10:52:54.274Z,101693.73
2017-10-01T10:54:56.730Z,101692.80
2017-10-01T10:56:59.168Z,101698.95
2017-10-01T10:59:01.690Z,101694.83
2017-10-01T11:01:04.160Z,101687.74
2017-10-01T11:03:06.597Z,101689.08
2017-10-01T11:05:09.056Z,101684.31
2017-10-01T11:07:11.504Z,101681.51
2017-10-01T11:09:14.080Z,101680.16
2017-10-01T11:11:16.548Z,101684.64
2017-10-01T11:13:18.988Z,101680.00
2017-10-01T11:15:21.464Z,101680.82
2017-10-01T11:17:23.936Z,101685.48
2017-10-01T11:19:26.372Z,101671.83
2017-10-01T11:21:28.808Z,101675.10
2017-10-01T11:23:31.324Z,101666.16
2017-10-01T11:25:33.756Z,101671.56
2017-10-01T11:27:36.287Z,101670.47
2017-10-01T11:29:38.807Z,101671.13
2017-10-01T11:31:41.257Z,101672.83
2017-10-01T11:33:43.782Z,101671.48
2017-10-01T11:35:46.244Z,101672.06
2017-10-01T11:37:48.716Z,101674.69
2017-10-01T11:39:51.144Z,101677.86
2017-10-01T11:41:53.830Z,101673.15
2017-10-01T11:43:56.296Z,101665.81
2017-10-01T11:45:58.741Z,101664.89
2017-10-01T11:48:01.293Z,101658.06
2017-10-01T11:50:03.732Z,101655.67
2017-10-01T11:52:06.181Z,101655.48
2017-10-01T11:54:08.816Z,101651.46
2017-10-01T11:56:11.265Z,101647.64
2017-10-01T11:58:13.712Z,101654.48
2017-10-01T12:00:16.165Z,101651.20
2017-10-01T12:02:18.687Z,101649.34
2017-10-01T12:04:21.130Z,101653.55
2017-10-01T12:06:23.609Z,101647.22
2017-10-01T12:08:26.052Z,101651.62
2017-10-01T12:10:28.556Z,101648.84
2017-10-01T12:12:31.053Z,101651.97
2017-10-01T12:14:33.492Z,101638.81
2017-10-01T12:16:35.936Z,101640.63
2017-10-01T12:18:38.440Z,101642.05
2017-10-01T12:20:40.884Z,101643.91
2017-10-01T12:22:43.380Z,101643.25
2017-10-01T12:24:46.095Z,101642.40
2017-10-01T12:26:48.523Z,101640.31
2017-10-01T12:28:50.975Z,101638.12
2017-10-01T12:30:53.435Z,101636.58
2017-10-01T12:32:55.859Z,101634.64
2017-10-01T12:34:58.292Z,101623.98
2017-10-01T12:37:00.753Z,101623.41
2017-10-01T12:39:03.202Z,101615.53
2017-10-01T12:41:05.708Z,101618.01
2017-10-01T12:43:08.184Z,101614.77
2017-10-01T12:45:10.620Z,101614.23
2017-10-01T12:47:13.127Z,101611.99
2017-10-01T12:49:15.623Z,101614.95
2017-10-01T12:51:18.060Z,101615.12
2017-10-01T12:53:20.500Z,101615.11
2017-10-01T12:55:23.134Z,101622.29
2017-10-01T12:57:25.586Z,101620.36
2017-10-01T12:59:28.044Z,101619.00
2017-10-01T13:01:36.343Z,101616.61
2017-10-01T13:03:38.782Z,101611.82
2017-10-01T13:05:41.296Z,101608.86
2017-10-01T13:07:43.756Z,101606.94
2017-10-01T13:09:46.196Z,101603.73
2017-10-01T13:11:48.633Z,101599.33
2017-10-01T13:13:51.104Z,101603.96
2017-10-01T13:15:53.532Z,101601.67
2017-10-01T13:17:55.960Z,101610.28
2017-10-01T13:19:58.430Z,101595.94
2017-10-01T13:22:00.863Z,101592.58
2017-10-01T13:24:03.304Z,101592.58
2017-10-01T13:26:05.780Z,101592.06
2017-10-01T13:28:08.265Z,101598.63
2017-10-01T13:30:10.711Z,101597.55
2017-10-01T13:32:13.183Z,101596.77
2017-10-01T13:34:15.626Z,101600.05
2017-10-01T13:36:18.148Z,101597.39
2017-10-01T13:38:20.724Z,101598.91
2017-10-01T13:40:23.168Z,101600.52
2017-10-01T13:42:25.653Z,101596.00
2017-10-01T13:44:28.164Z,101594.77
2017-10-01T13:46:30.630Z,101590.22
2017-10-01T13:48:33.071Z,101576.44
2017-10-01T13:50:35.555Z,101568.84
2017-10-01T13:52:38.000Z,101569.33
2017-10-01T13:54:40.442Z,101569.52
2017-10-01T13:56:43.032Z,101573.11
2017-10-01T13:58:45.464Z,101578.98
2017-10-01T14:00:47.907Z,101574.38
2017-10-01T14:02:50.462Z,101563.38
2017-10-01T14:04:52.908Z,101553.26
2017-10-01T14:06:55.347Z,101555.47
2017-10-01T14:08:57.815Z,101553.41
2017-10-01T14:11:00.401Z,101542.95
2017-10-01T14:13:02.852Z,101543.30
2017-10-01T14:15:05.339Z,101548.94
2017-10-01T14:17:07.831Z,101539.98
2017-10-01T14:19:10.322Z,101544.80
2017-10-01T14:21:12.789Z,101547.35
2017-10-01T14:23:15.228Z,101546.86
2017-10-01T14:25:17.667Z,101550.28
2017-10-01T14:27:20.142Z,101551.05
2017-10-01T14:29:22.573Z,101552.97
2017-10-01T14:31:25.051Z,101551.91
2017-10-01T14:33:27.627Z,101555.98
2017-10-01T14:35:30.059Z,101546.78
2017-10-01T14:37:32.525Z,101544.01
2017-10-01T14:39:34.993Z,101551.06
2017-10-01T14:41:37.497Z,101551.49
2017-10-01T14:43:39.942Z,101547.66
2017-10-01T14:45:42.451Z,101539.40
2017-10-01T14:47:44.934Z,101541.53
2017-10-01T14:49:47.393Z,101534.85
2017-10-01T14:51:49.909Z,101531.42
2017-10-01T14:53:52.420Z,101517.22
2017-10-01T14:55:54.905Z,101519.15
2017-10-01T14:57:57.446Z,101521.85
2017-10-01T14:59:59.933Z,101526.98
2017-10-01T15:02:02.366Z,101528.53
2017-10-01T15:04:04.839Z,101524.20
2017-10-01T15:06:07.341Z,101524.55
2017-10-01T15:08:09.782Z,101523.83
2017-10-01T15:10:12.259Z,101528.30
2017-10-01T15:12:14.708Z,101528.89
2017-10-01T15:14:17.145Z,101528.55
2017-10-01T15:16:19.644Z,101528.19
2017-10-01T15:18:22.082Z,101528.89
2017-10-01T15:20:24.517Z,101536.64
2017-10-01T15:22:26.976Z,101528.05
2017-10-01T15:24:29.464Z,101529.74
2017-10-01T15:26:31.906Z,101528.13
2017-10-01T15:28:34.365Z,101529.32
2017-10-01T15:30:36.838Z,101526.03
2017-10-01T15:32:39.411Z,101530.16
2017-10-01T15:34:41.868Z,101532.45
2017-10-01T15:36:44.395Z,101539.45
2017-10-01T15:38:46.911Z,101536.34
2017-10-01T15:40:49.439Z,101526.55
2017-10-01T15:42:51.885Z,101524.95
2017-10-01T15:44:54.329Z,101523.84
2017-10-01T15:46:56.833Z,101518.45
2017-10-01T15:48:59.273Z,101512.89
2017-10-01T15:51:01.714Z,101510.12
2017-10-01T15:53:04.169Z,101508.47
2017-10-01T15:55:06.600Z,101506.99
2017-10-01T15:57:09.157Z,101511.53
2017-10-01T15:59:12.036Z,101507.41
2017-10-01T16:01:14.508Z,101509.14
2017-10-01T16:03:16.964Z,101516.17
2017-10-01T16:05:19.450Z,101522.26
2017-10-01T16:07:21.922Z,101522.20
2017-10-01T16:09:24.370Z,101522.20
2017-10-01T16:11:26.853Z,101520.16
2017-10-01T16:13:29.299Z,101522.48
2017-10-01T16:15:31.747Z,101519.92
2017-10-01T16:17:34.213Z,101538.05
2017-10-01T16:19:36.653Z,101526.91
2017-10-01T16:21:39.102Z,101524.39
2017-10-01T16:23:41.628Z,101519.22
2017-10-01T16:25:44.090Z,101517.16
2017-10-01T16:27:46.545Z,101515.88
2017-10-01T16:29:49.034Z,101517.88
2017-10-01T16:31:51.483Z,101519.59
2017-10-01T16:33:53.926Z,101515.39
2017-10-01T16:35:56.394Z,101519.78
2017-10-01T16:37:58.830Z,101516.31
2017-10-01T16:40:01.376Z,101514.73
2017-10-01T16:42:03.849Z,101507.71
2017-10-01T16:44:06.281Z,101512.80
2017-10-01T16:46:08.716Z,101509.41
2017-10-01T16:48:11.263Z,101507.20
2017-10-01T16:50:13.740Z,101508.20
2017-10-01T16:52:16.172Z,101510.33
2017-10-01T16:54:18.652Z,101506.00
2017-10-01T16:56:21.136Z,101498.41
2017-10-01T16:58:23.579Z,101501.54
2017-10-01T17:00:26.175Z,101502.08
2017-10-01T17:02:28.611Z,101503.94
2017-10-01T17:04:31.120Z,101507.30
2017-10-01T17:06:33.587Z,101510.61
2017-10-01T17:08:36.021Z,101502.23
2017-10-01T17:10:38.455Z,101506.30
2017-10-01T17:12:40.960Z,101508.16
2017-10-01T17:14:43.395Z,101499.97
2017-10-01T17:16:45.901Z,101502.98
2017-10-01T17:18:48.365Z,101492.96
2017-10-01T17:20:50.809Z,101493.48
2017-10-01T17:22:53.250Z,101490.42
2017-10-01T17:24:55.717Z,101502.33
2017-10-01T17:26:58.208Z,101499.55
2017-10-01T17:29:00.651Z,101495.34
2017-10-01T17:31:03.126Z,101494.91
2017-10-01T17:33:05.568Z,101491.03
2017-10-01T17:35:08.004Z,101497.09
2017-10-01T17:37:10.468Z,101495.66
2017-10-01T17:39:12.922Z,101494.81
2017-10-01T17:41:15.358Z,101492.53
2017-10-01T17:43:17.820Z,101487.40
2017-10-01T17:45:20.279Z,101486.37
2017-10-01T17:47:22.805Z,101481.50
2017-10-01T17:49:25.360Z,101477.71
2017-10-01T17:51:27.800Z,101478.30
2017-10-01T17:53:30.328Z,101475.67
2017-10-01T17:55:32.795Z,101481.42
2017-10-01T17:57:35.348Z,101485.78
2017-10-01T17:59:37.792Z,101478.55
2017-10-01T18:01:40.481Z,101493.66
2017-10-01T18:03:42.933Z,101485.13
2017-10-01T18:05:45.436Z,101493.89
2017-10-01T18:07:47.915Z,101503.77
2017-10-01T18:09:50.362Z,101497.02
2017-10-01T18:11:52.817Z,101497.71
2017-10-01T18:13:55.285Z,101494.17
2017-10-01T18:15:57.781Z,101484.87
2017-10-01T18:18:00.273Z,101476.28
2017-10-01T18:20:02.740Z,101476.12
2017-10-01T18:22:05.168Z,101486.27
2017-10-01T18:24:07.599Z,101483.03
2017-10-01T18:26:10.072Z,101495.36
2017-10-01T18:28:12.524Z,101495.94
2017-10-01T18:30:14.965Z,101493.47
2017-10-01T18:32:17.440Z,101488.69
2017-10-01T18:34:19.932Z,101486.07
2017-10-01T18:36:22.384Z,101474.27
2017-10-01T18:38:24.846Z,101473.78
2017-10-01T18:40:27.288Z,101475.62
2017-10-01T18:42:30.058Z,101475.13
2017-10-01T18:44:33.677Z,101473.42
2017-10-01T18:46:36.637Z,101480.09
2017-10-01T18:48:40.954Z,101484.48
2017-10-01T18:50:43.462Z,101477.47
2017-10-01T18:52:45.928Z,101478.70
2017-10-01T18:54:48.364Z,101473.06
2017-10-01T18:56:52.103Z,101469.94
2017-10-01T18:58:54.648Z,101475.20
2017-10-01T19:00:57.098Z,101465.98
2017-10-01T19:02:59.601Z,101470.30
2017-10-01T19:05:02.066Z,101471.10
2017-10-01T19:07:04.508Z,101465.39
2017-10-01T19:09:06.984Z,101463.27
2017-10-01T19:11:09.416Z,101456.89
2017-10-01T19:13:11.853Z,101452.48
2017-10-01T19:15:14.329Z,101453.33
2017-10-01T19:17:16.765Z,101461.20
2017-10-01T19:19:19.276Z,101460.85
2017-10-01T19:21:21.756Z,101460.27
2017-10-01T19:23:24.212Z,101460.94
2017-10-01T19:25:26.657Z,101462.36
2017-10-01T19:27:29.151Z,101465.33
2017-10-01T19:29:31.598Z,101459.16
2017-10-01T19:31:34.063Z,101454.88
2017-10-01T19:33:36.547Z,101454.61
2017-10-01T19:35:39.008Z,101456.89
2017-10-01T19:37:41.468Z,101442.38
2017-10-01T19:39:43.962Z,101448.20
2017-10-01T19:41:46.414Z,101438.42
2017-10-01T19:43:48.858Z,101438.00
2017-10-01T19:45:51.325Z,101444.00
2017-10-01T19:47:53.798Z,101434.98
2017-10-01T19:49:56.348Z,101433.30
2017-10-01T19:51:58.853Z,101433.57
2017-10-01T19:54:01.308Z,101435.34
2017-10-01T19:56:03.755Z,101440.39
2017-10-01T19:58:06.228Z,101440.39
2017-10-01T20:00:08.673Z,101437.11
2017-10-01T20:02:11.108Z,101436.58
2017-10-01T20:04:13.616Z,101438.89
2017-10-01T20:06:16.053Z,101432.02
2017-10-01T20:08:18.494Z,101432.80
2017-10-01T20:10:20.995Z,101431.95
2017-10-01T20:12:23.467Z,101429.59
2017-10-01T20:14:25.980Z,101430.60
2017-10-01T20:16:28.448Z,101423.92
2017-10-01T20:18:30.899Z,101414.55
2017-10-01T20:20:34.270Z,101405.16
2017-10-01T20:22:36.734Z,101403.34
2017-10-01T20:24:39.301Z,101396.79
2017-10-01T20:26:41.816Z,101392.39
2017-10-01T20:28:44.280Z,101397.36
2017-10-01T20:30:46.727Z,101398.88
2017-10-01T20:32:49.174Z,101407.15
2017-10-01T20:34:51.696Z,101405.45
2017-10-01T20:36:54.137Z,101413.05
2017-10-01T20:38:56.578Z,101419.45
2017-10-01T20:40:59.932Z,101421.58
2017-10-01T20:43:02.379Z,101423.27
2017-10-01T20:45:04.824Z,101411.28
2017-10-01T20:47:07.297Z,101413.25
2017-10-01T20:49:09.736Z,101410.70
2017-10-01T20:51:12.172Z,101411.00
2017-10-01T20:53:14.635Z,101410.28
2017-10-01T20:55:17.079Z,101405.16
2017-10-01T20:57:19.591Z,101412.90
2017-10-01T20:59:22.070Z,101404.11
2017-10-01T21:01:24.519Z,101400.98
2017-10-01T21:03:27.014Z,101395.31
2017-10-01T21:05:29.572Z,101396.17
2017-10-01T21:07:32.022Z,101383.80
2017-10-01T21:09:34.481Z,101378.83
2017-10-01T21:11:36.945Z,101381.38
2017-10-01T21:13:39.449Z,101383.03
2017-10-01T21:15:41.925Z,101380.83
2017-10-01T21:17:44.512Z,101376.06
2017-10-01T21:19:47.091Z,101373.00
2017-10-01T21:21:49.539Z,101375.78
2017-10-01T21:23:52.109Z,101374.98
2017-10-01T21:25:54.544Z,101379.11
2017-10-01T21:27:56.980Z,101380.25
2017-10-01T21:29:59.442Z,101387.34
2017-10-01T21:32:01.884Z,101381.45
2017-10-01T21:34:04.365Z,101385.73
2017-10-01T21:36:06.884Z,101386.41
2017-10-01T21:38:09.341Z,101370.53
2017-10-01T21:40:11.773Z,101371.23
2017-10-01T21:42:14.238Z,101360.80
2017-10-01T21:44:16.742Z,101354.20
2017-10-01T21:46:19.287Z,101350.15
2017-10-01T21:48:21.768Z,101344.94
2017-10-01T21:50:24.246Z,101340.98
2017-10-01T21:52:26.680Z,101336.09
2017-10-01T21:54:29.144Z,101336.09
2017-10-01T21:56:31.586Z,101338.02
2017-10-01T21:58:34.050Z,101334.15
2017-10-01T22:00:36.563Z,101335.00
2017-10-01T22:02:39.025Z,101332.46
2017-10-01T22:04:41.467Z,101323.38
2017-10-01T22:06:43.957Z,101319.32
2017-10-01T22:08:46.398Z,101322.87
2017-10-01T22:10:48.853Z,101326.05
2017-10-01T22:12:51.380Z,101332.04
2017-10-01T22:14:53.856Z,101335.50
2017-10-01T22:16:56.287Z,101333.81
2017-10-01T22:18:58.737Z,101329.34
2017-10-01T22:21:01.168Z,101329.68
2017-10-01T22:23:03.625Z,101327.89
2017-10-01T22:25:06.097Z,101327.54
2017-10-01T22:27:08.533Z,101327.97
2017-10-01T22:29:10.979Z,101329.98
2017-10-01T22:31:13.442Z,101329.79
2017-10-01T22:33:15.875Z,101325.34
2017-10-01T22:35:18.322Z,101316.28
2017-10-01T22:37:20.820Z,101305.47
2017-10-01T22:39:23.261Z,101305.57
2017-10-01T22:41:25.693Z,101292.20
2017-10-01T22:43:28.152Z,101293.50
2017-10-01T22:45:30.606Z,101285.52
2017-10-01T22:47:33.054Z,101293.84
2017-10-01T22:49:35.541Z,101279.84
2017-10-01T22:51:37.981Z,101277.80
2017-10-01T22:53:40.426Z,101280.70
2017-10-01T22:55:42.896Z,101281.19
2017-10-01T22:57:45.330Z,101282.45
2017-10-01T22:59:47.771Z,101285.25
2017-10-01T23:01:50.228Z,101285.80
2017-10-01T23:03:52.730Z,101277.24
2017-10-01T23:05:55.163Z,101274.37
2017-10-01T23:07:57.770Z,101275.39
2017-10-01T23:10:00.203Z,101267.53
2017-10-01T23:12:02.644Z,101260.87
2017-10-01T23:14:05.100Z,101261.61
2017-10-01T23:16:07.544Z,101260.84
2017-10-01T23:18:09.990Z,101260.72
2017-10-01T23:20:12.450Z,101252.03